sensor_id;sensor_type;location;lat;lon;timestamp;temperature;humidity
39095;DHT22;24840;47.508;19.376;2023-06-04T00:00:49;10.60;99.90
39095;DHT22;24840;47.508;19.376;2023-06-04T00:03:14;10.60;99.90
39095;DHT22;24840;47.508;19.376;2023-06-04T00:05:40;10.50;99.90
39095;DHT22;24840;47.508;19.376;2023-06-04T00:08:06;10.60;99.90
39095;DHT22;24840;47.508;19.376;2023-06-04T00:10:32;10.70;99.90
39095;DHT22;24840;47.508;19.376;2023-06-04T00:12:59;10.90;99.90
39095;DHT22;24840;47.508;19.376;2023-06-04T00:15:25;10.90;99.90
39095;DHT22;24840;47.508;19.376;2023-06-04T00:17:51;10.70;99.90
39095;DHT22;24840;47.508;19.376;2023-06-04T00:20:18;10.50;99.90
39095;DHT22;24840;47.508;19.376;2023-06-04T00:22:44;10.60;99.90
39095;DHT22;24840;47.508;19.376;2023-06-04T00:25:10;10.70;99.90
39095;DHT22;24840;47.508;19.376;2023-06-04T00:27:36;10.80;99.90
39095;DHT22;24840;47.508;19.376;2023-06-04T00:30:03;10.70;99.90
39095;DHT22;24840;47.508;19.376;2023-06-04T00:32:29;10.80;99.90
39095;DHT22;24840;47.508;19.376;2023-06-04T00:34:55;10.80;99.90
39095;DHT22;24840;47.508;19.376;2023-06-04T00:37:23;10.70;99.90
39095;DHT22;24840;47.508;19.376;2023-06-04T00:39:49;10.60;99.90
39095;DHT22;24840;47.508;19.376;2023-06-04T00:42:16;10.70;99.90
39095;DHT22;24840;47.508;19.376;2023-06-04T00:44:41;10.70;99.90
39095;DHT22;24840;47.508;19.376;2023-06-04T00:47:20;10.60;99.90
39095;DHT22;24840;47.508;19.376;2023-06-04T00:49:46;10.60;99.90
39095;DHT22;24840;47.508;19.376;2023-06-04T00:52:15;10.50;99.90
39095;DHT22;24840;47.508;19.376;2023-06-04T00:54:41;10.60;99.90
39095;DHT22;24840;47.508;19.376;2023-06-04T00:57:07;10.60;99.90
39095;DHT22;24840;47.508;19.376;2023-06-04T00:59:36;10.50;99.90
39095;DHT22;24840;47.508;19.376;2023-06-04T01:02:11;10.40;99.90
39095;DHT22;24840;47.508;19.376;2023-06-04T01:07:14;10.10;99.90
39095;DHT22;24840;47.508;19.376;2023-06-04T01:09:41;10.20;99.90
39095;DHT22;24840;47.508;19.376;2023-06-04T01:12:07;10.20;99.90
39095;DHT22;24840;47.508;19.376;2023-06-04T01:14:33;10.20;99.90
39095;DHT22;24840;47.508;19.376;2023-06-04T01:17:02;10.40;99.90
39095;DHT22;24840;47.508;19.376;2023-06-04T01:19:40;10.40;99.90
39095;DHT22;24840;47.508;19.376;2023-06-04T01:27:54;10.40;99.90
39095;DHT22;24840;47.508;19.376;2023-06-04T01:30:26;10.60;99.90
39095;DHT22;24840;47.508;19.376;2023-06-04T01:32:54;10.30;99.90
39095;DHT22;24840;47.508;19.376;2023-06-04T01:35:20;10.10;99.90
39095;DHT22;24840;47.508;19.376;2023-06-04T01:37:46;10.20;99.90
39095;DHT22;24840;47.508;19.376;2023-06-04T01:40:13;10.30;99.90
39095;DHT22;24840;47.508;19.376;2023-06-04T01:42:41;10.10;99.90
39095;DHT22;24840;47.508;19.376;2023-06-04T01:45:08;10.10;99.90
39095;DHT22;24840;47.508;19.376;2023-06-04T01:47:34;9.90;99.90
39095;DHT22;24840;47.508;19.376;2023-06-04T01:50:01;9.90;99.90
39095;DHT22;24840;47.508;19.376;2023-06-04T01:52:27;9.80;99.90
39095;DHT22;24840;47.508;19.376;2023-06-04T01:54:53;9.80;99.90
39095;DHT22;24840;47.508;19.376;2023-06-04T01:57:20;9.40;99.90
39095;DHT22;24840;47.508;19.376;2023-06-04T01:59:46;9.40;99.90
39095;DHT22;24840;47.508;19.376;2023-06-04T02:02:13;9.80;99.90
39095;DHT22;24840;47.508;19.376;2023-06-04T02:04:39;10.10;99.90
39095;DHT22;24840;47.508;19.376;2023-06-04T02:07:09;9.70;99.90
39095;DHT22;24840;47.508;19.376;2023-06-04T02:09:36;9.90;99.90
39095;DHT22;24840;47.508;19.376;2023-06-04T02:12:03;9.60;99.90
39095;DHT22;24840;47.508;19.376;2023-06-04T02:14:28;9.70;99.90
39095;DHT22;24840;47.508;19.376;2023-06-04T02:16:54;9.90;99.90
39095;DHT22;24840;47.508;19.376;2023-06-04T02:19:24;9.60;99.90
39095;DHT22;24840;47.508;19.376;2023-06-04T02:21:52;9.40;99.90
39095;DHT22;24840;47.508;19.376;2023-06-04T02:24:18;9.50;99.90
39095;DHT22;24840;47.508;19.376;2023-06-04T02:26:43;9.80;99.90
39095;DHT22;24840;47.508;19.376;2023-06-04T02:29:09;9.90;99.90
39095;DHT22;24840;47.508;19.376;2023-06-04T02:31:35;9.80;99.90
39095;DHT22;24840;47.508;19.376;2023-06-04T02:34:01;9.90;99.90
39095;DHT22;24840;47.508;19.376;2023-06-04T02:36:28;9.80;99.90
39095;DHT22;24840;47.508;19.376;2023-06-04T02:38:53;9.90;99.90
39095;DHT22;24840;47.508;19.376;2023-06-04T02:41:19;10.00;99.90
39095;DHT22;24840;47.508;19.376;2023-06-04T02:43:45;9.90;99.90
39095;DHT22;24840;47.508;19.376;2023-06-04T02:46:11;9.90;99.90
39095;DHT22;24840;47.508;19.376;2023-06-04T02:48:36;9.70;99.90
39095;DHT22;24840;47.508;19.376;2023-06-04T02:51:02;9.80;99.90
39095;DHT22;24840;47.508;19.376;2023-06-04T02:53:28;9.90;99.90
39095;DHT22;24840;47.508;19.376;2023-06-04T02:55:54;9.70;99.90
39095;DHT22;24840;47.508;19.376;2023-06-04T02:58:19;9.80;99.90
39095;DHT22;24840;47.508;19.376;2023-06-04T03:00:47;9.80;99.90
39095;DHT22;24840;47.508;19.376;2023-06-04T03:03:12;9.90;99.90
39095;DHT22;24840;47.508;19.376;2023-06-04T03:05:38;10.10;99.90
39095;DHT22;24840;47.508;19.376;2023-06-04T03:08:05;10.20;99.90
39095;DHT22;24840;47.508;19.376;2023-06-04T03:10:31;10.10;99.90
39095;DHT22;24840;47.508;19.376;2023-06-04T03:12:57;10.10;99.90
39095;DHT22;24840;47.508;19.376;2023-06-04T03:15:23;10.10;99.90
39095;DHT22;24840;47.508;19.376;2023-06-04T03:17:49;10.10;99.90
39095;DHT22;24840;47.508;19.376;2023-06-04T03:20:16;10.00;99.90
39095;DHT22;24840;47.508;19.376;2023-06-04T03:22:42;10.20;99.90
39095;DHT22;24840;47.508;19.376;2023-06-04T03:25:08;10.00;99.90
39095;DHT22;24840;47.508;19.376;2023-06-04T03:27:34;10.00;99.90
39095;DHT22;24840;47.508;19.376;2023-06-04T03:30:01;10.10;99.90
39095;DHT22;24840;47.508;19.376;2023-06-04T03:32:27;10.00;99.90
39095;DHT22;24840;47.508;19.376;2023-06-04T03:34:53;9.70;99.90
39095;DHT22;24840;47.508;19.376;2023-06-04T03:37:18;9.80;99.90
39095;DHT22;24840;47.508;19.376;2023-06-04T03:39:44;9.90;99.90
39095;DHT22;24840;47.508;19.376;2023-06-04T03:42:10;9.90;99.90
39095;DHT22;24840;47.508;19.376;2023-06-04T03:44:36;9.60;99.90
39095;DHT22;24840;47.508;19.376;2023-06-04T03:47:01;9.30;99.90
39095;DHT22;24840;47.508;19.376;2023-06-04T03:49:27;9.80;99.90
39095;DHT22;24840;47.508;19.376;2023-06-04T03:51:53;10.00;99.90
39095;DHT22;24840;47.508;19.376;2023-06-04T03:54:18;10.10;99.90
39095;DHT22;24840;47.508;19.376;2023-06-04T03:56:47;10.20;99.90
39095;DHT22;24840;47.508;19.376;2023-06-04T03:59:13;10.10;99.90
39095;DHT22;24840;47.508;19.376;2023-06-04T04:01:39;10.00;99.90
39095;DHT22;24840;47.508;19.376;2023-06-04T04:04:05;10.00;99.90
39095;DHT22;24840;47.508;19.376;2023-06-04T04:06:31;10.20;99.90
39095;DHT22;24840;47.508;19.376;2023-06-04T04:08:57;10.30;99.90
39095;DHT22;24840;47.508;19.376;2023-06-04T04:11:24;10.20;99.90
39095;DHT22;24840;47.508;19.376;2023-06-04T04:13:51;10.10;99.90
39095;DHT22;24840;47.508;19.376;2023-06-04T04:16:16;10.30;99.90
39095;DHT22;24840;47.508;19.376;2023-06-04T04:18:43;9.90;99.90
39095;DHT22;24840;47.508;19.376;2023-06-04T04:21:12;9.80;99.90
39095;DHT22;24840;47.508;19.376;2023-06-04T04:23:38;10.00;99.90
39095;DHT22;24840;47.508;19.376;2023-06-04T04:26:08;10.40;99.90
39095;DHT22;24840;47.508;19.376;2023-06-04T04:28:35;10.30;99.90
39095;DHT22;24840;47.508;19.376;2023-06-04T04:31:01;10.30;99.90
39095;DHT22;24840;47.508;19.376;2023-06-04T04:33:28;10.40;99.90
39095;DHT22;24840;47.508;19.376;2023-06-04T04:35:58;10.50;99.90
39095;DHT22;24840;47.508;19.376;2023-06-04T04:38:25;10.70;99.90
39095;DHT22;24840;47.508;19.376;2023-06-04T04:40:51;10.80;99.90
39095;DHT22;24840;47.508;19.376;2023-06-04T04:43:29;10.90;99.90
39095;DHT22;24840;47.508;19.376;2023-06-04T04:45:55;11.00;99.90
39095;DHT22;24840;47.508;19.376;2023-06-04T04:48:21;11.10;99.90
39095;DHT22;24840;47.508;19.376;2023-06-04T04:50:47;11.00;99.90
39095;DHT22;24840;47.508;19.376;2023-06-04T04:53:12;11.00;99.90
39095;DHT22;24840;47.508;19.376;2023-06-04T04:55:38;11.20;99.90
39095;DHT22;24840;47.508;19.376;2023-06-04T04:58:04;11.40;99.90
39095;DHT22;24840;47.508;19.376;2023-06-04T05:00:31;11.50;99.90
39095;DHT22;24840;47.508;19.376;2023-06-04T05:02:56;11.70;99.90
39095;DHT22;24840;47.508;19.376;2023-06-04T05:05:22;11.80;99.90
39095;DHT22;24840;47.508;19.376;2023-06-04T05:07:48;11.80;99.90
39095;DHT22;24840;47.508;19.376;2023-06-04T05:10:14;11.70;99.90
39095;DHT22;24840;47.508;19.376;2023-06-04T05:12:50;11.60;99.90
39095;DHT22;24840;47.508;19.376;2023-06-04T05:15:17;12.10;99.90
39095;DHT22;24840;47.508;19.376;2023-06-04T05:17:43;12.30;99.90
39095;DHT22;24840;47.508;19.376;2023-06-04T05:20:09;12.30;99.90
39095;DHT22;24840;47.508;19.376;2023-06-04T05:22:39;12.50;99.90
39095;DHT22;24840;47.508;19.376;2023-06-04T05:25:06;12.70;99.90
39095;DHT22;24840;47.508;19.376;2023-06-04T05:27:32;12.90;99.90
39095;DHT22;24840;47.508;19.376;2023-06-04T05:29:58;13.10;99.90
39095;DHT22;24840;47.508;19.376;2023-06-04T05:32:24;13.20;99.90
39095;DHT22;24840;47.508;19.376;2023-06-04T05:34:54;13.40;99.90
39095;DHT22;24840;47.508;19.376;2023-06-04T05:37:25;13.70;99.90
39095;DHT22;24840;47.508;19.376;2023-06-04T05:39:53;14.00;99.90
39095;DHT22;24840;47.508;19.376;2023-06-04T05:42:19;14.30;99.90
39095;DHT22;24840;47.508;19.376;2023-06-04T05:44:45;14.70;99.90
39095;DHT22;24840;47.508;19.376;2023-06-04T05:47:11;15.10;99.90
39095;DHT22;24840;47.508;19.376;2023-06-04T05:49:36;15.40;99.90
39095;DHT22;24840;47.508;19.376;2023-06-04T05:52:02;15.70;99.90
39095;DHT22;24840;47.508;19.376;2023-06-04T05:54:29;15.90;99.20
39095;DHT22;24840;47.508;19.376;2023-06-04T05:56:55;15.80;95.80
39095;DHT22;24840;47.508;19.376;2023-06-04T05:59:21;16.00;99.50
39095;DHT22;24840;47.508;19.376;2023-06-04T06:01:47;16.40;96.00
39095;DHT22;24840;47.508;19.376;2023-06-04T06:04:14;16.70;93.20
39095;DHT22;24840;47.508;19.376;2023-06-04T06:06:39;16.70;90.40
39095;DHT22;24840;47.508;19.376;2023-06-04T06:09:09;16.50;89.80
39095;DHT22;24840;47.508;19.376;2023-06-04T06:11:35;16.70;95.10
39095;DHT22;24840;47.508;19.376;2023-06-04T06:14:01;16.90;91.30
39095;DHT22;24840;47.508;19.376;2023-06-04T06:16:27;17.20;91.90
39095;DHT22;24840;47.508;19.376;2023-06-04T06:18:53;17.50;91.80
39095;DHT22;24840;47.508;19.376;2023-06-04T06:21:19;17.60;90.40
39095;DHT22;24840;47.508;19.376;2023-06-04T06:23:45;17.70;90.70
39095;DHT22;24840;47.508;19.376;2023-06-04T06:26:11;17.80;87.90
39095;DHT22;24840;47.508;19.376;2023-06-04T06:28:37;18.00;92.20
39095;DHT22;24840;47.508;19.376;2023-06-04T06:31:03;18.00;89.60
39095;DHT22;24840;47.508;19.376;2023-06-04T06:33:29;17.90;85.50
39095;DHT22;24840;47.508;19.376;2023-06-04T06:35:54;17.90;84.00
39095;DHT22;24840;47.508;19.376;2023-06-04T06:38:20;18.20;88.00
39095;DHT22;24840;47.508;19.376;2023-06-04T06:40:46;18.30;85.40
39095;DHT22;24840;47.508;19.376;2023-06-04T06:43:11;18.40;82.90
39095;DHT22;24840;47.508;19.376;2023-06-04T06:45:37;18.60;84.20
39095;DHT22;24840;47.508;19.376;2023-06-04T06:48:04;18.70;81.80
39095;DHT22;24840;47.508;19.376;2023-06-04T06:50:30;19.10;86.70
39095;DHT22;24840;47.508;19.376;2023-06-04T06:52:55;19.60;86.10
39095;DHT22;24840;47.508;19.376;2023-06-04T06:55:21;19.70;79.00
39095;DHT22;24840;47.508;19.376;2023-06-04T06:57:47;19.60;82.90
39095;DHT22;24840;47.508;19.376;2023-06-04T07:00:13;19.50;83.90
39095;DHT22;24840;47.508;19.376;2023-06-04T07:02:39;19.90;84.50
39095;DHT22;24840;47.508;19.376;2023-06-04T07:05:05;20.10;80.30
39095;DHT22;24840;47.508;19.376;2023-06-04T07:07:30;20.30;80.80
39095;DHT22;24840;47.508;19.376;2023-06-04T07:09:56;20.40;80.20
39095;DHT22;24840;47.508;19.376;2023-06-04T07:12:22;20.60;82.30
39095;DHT22;24840;47.508;19.376;2023-06-04T07:14:48;20.70;79.10
39095;DHT22;24840;47.508;19.376;2023-06-04T07:17:13;21.00;82.90
39095;DHT22;24840;47.508;19.376;2023-06-04T07:19:39;21.30;75.50
39095;DHT22;24840;47.508;19.376;2023-06-04T07:22:05;21.30;76.60
39095;DHT22;24840;47.508;19.376;2023-06-04T07:24:31;21.20;69.20
39095;DHT22;24840;47.508;19.376;2023-06-04T07:26:56;20.90;78.20
39095;DHT22;24840;47.508;19.376;2023-06-04T07:29:22;21.30;78.00
39095;DHT22;24840;47.508;19.376;2023-06-04T07:31:48;21.30;74.80
39095;DHT22;24840;47.508;19.376;2023-06-04T07:34:14;21.10;72.90
39095;DHT22;24840;47.508;19.376;2023-06-04T07:36:40;21.20;74.10
39095;DHT22;24840;47.508;19.376;2023-06-04T07:39:06;21.20;73.50
39095;DHT22;24840;47.508;19.376;2023-06-04T07:41:32;21.20;65.10
39095;DHT22;24840;47.508;19.376;2023-06-04T07:43:57;20.90;70.10
39095;DHT22;24840;47.508;19.376;2023-06-04T07:46:24;21.10;74.70
39095;DHT22;24840;47.508;19.376;2023-06-04T07:48:50;20.80;69.80
39095;DHT22;24840;47.508;19.376;2023-06-04T07:51:16;20.90;77.40
39095;DHT22;24840;47.508;19.376;2023-06-04T07:53:43;21.00;69.50
39095;DHT22;24840;47.508;19.376;2023-06-04T07:56:10;21.10;71.30
39095;DHT22;24840;47.508;19.376;2023-06-04T07:58:35;21.30;69.90
39095;DHT22;24840;47.508;19.376;2023-06-04T08:01:01;21.10;64.20
39095;DHT22;24840;47.508;19.376;2023-06-04T08:03:27;21.40;72.00
39095;DHT22;24840;47.508;19.376;2023-06-04T08:05:53;21.80;71.00
39095;DHT22;24840;47.508;19.376;2023-06-04T08:08:18;21.80;72.50
39095;DHT22;24840;47.508;19.376;2023-06-04T08:10:44;22.00;70.10
39095;DHT22;24840;47.508;19.376;2023-06-04T08:13:10;22.00;66.80
39095;DHT22;24840;47.508;19.376;2023-06-04T08:15:35;22.40;66.70
39095;DHT22;24840;47.508;19.376;2023-06-04T08:18:01;22.50;70.30
39095;DHT22;24840;47.508;19.376;2023-06-04T08:20:27;22.70;72.90
39095;DHT22;24840;47.508;19.376;2023-06-04T08:22:53;22.80;68.20
39095;DHT22;24840;47.508;19.376;2023-06-04T08:25:18;23.10;60.90
39095;DHT22;24840;47.508;19.376;2023-06-04T08:27:44;22.70;64.50
39095;DHT22;24840;47.508;19.376;2023-06-04T08:30:10;23.30;68.40
39095;DHT22;24840;47.508;19.376;2023-06-04T08:32:36;23.40;61.20
39095;DHT22;24840;47.508;19.376;2023-06-04T08:35:02;23.90;64.90
39095;DHT22;24840;47.508;19.376;2023-06-04T08:37:28;23.80;64.10
39095;DHT22;24840;47.508;19.376;2023-06-04T08:39:54;23.90;59.00
39095;DHT22;24840;47.508;19.376;2023-06-04T08:42:29;23.40;67.40
39095;DHT22;24840;47.508;19.376;2023-06-04T08:44:57;23.80;64.40
39095;DHT22;24840;47.508;19.376;2023-06-04T08:47:24;24.70;63.30
39095;DHT22;24840;47.508;19.376;2023-06-04T08:49:52;25.30;63.30
39095;DHT22;24840;47.508;19.376;2023-06-04T08:52:19;25.40;62.50
39095;DHT22;24840;47.508;19.376;2023-06-04T08:54:49;25.00;59.60
39095;DHT22;24840;47.508;19.376;2023-06-04T08:57:18;24.80;57.50
39095;DHT22;24840;47.508;19.376;2023-06-04T08:59:45;25.20;61.10
39095;DHT22;24840;47.508;19.376;2023-06-04T09:02:13;24.80;57.90
39095;DHT22;24840;47.508;19.376;2023-06-04T09:04:40;25.90;64.30
39095;DHT22;24840;47.508;19.376;2023-06-04T09:07:06;26.10;64.50
39095;DHT22;24840;47.508;19.376;2023-06-04T09:09:38;25.90;60.10
39095;DHT22;24840;47.508;19.376;2023-06-04T09:12:08;25.30;61.70
39095;DHT22;24840;47.508;19.376;2023-06-04T09:14:34;25.30;64.40
39095;DHT22;24840;47.508;19.376;2023-06-04T09:17:00;24.90;62.50
39095;DHT22;24840;47.508;19.376;2023-06-04T09:19:26;26.60;64.50
39095;DHT22;24840;47.508;19.376;2023-06-04T09:21:59;26.90;57.20
39095;DHT22;24840;47.508;19.376;2023-06-04T09:24:41;26.60;58.20
39095;DHT22;24840;47.508;19.376;2023-06-04T09:27:12;25.50;60.50
39095;DHT22;24840;47.508;19.376;2023-06-04T09:29:39;25.10;56.90
39095;DHT22;24840;47.508;19.376;2023-06-04T09:32:05;24.90;61.50
39095;DHT22;24840;47.508;19.376;2023-06-04T09:34:31;24.80;57.40
39095;DHT22;24840;47.508;19.376;2023-06-04T09:36:58;24.20;55.40
39095;DHT22;24840;47.508;19.376;2023-06-04T09:39:24;24.80;60.00
39095;DHT22;24840;47.508;19.376;2023-06-04T09:42:02;24.90;58.40
39095;DHT22;24840;47.508;19.376;2023-06-04T09:44:29;25.30;59.00
39095;DHT22;24840;47.508;19.376;2023-06-04T09:46:56;25.00;58.50
39095;DHT22;24840;47.508;19.376;2023-06-04T09:49:22;24.50;62.20
39095;DHT22;24840;47.508;19.376;2023-06-04T09:51:48;24.30;64.20
39095;DHT22;24840;47.508;19.376;2023-06-04T09:54:15;24.00;62.20
39095;DHT22;24840;47.508;19.376;2023-06-04T09:56:41;23.90;67.80
39095;DHT22;24840;47.508;19.376;2023-06-04T09:59:09;23.50;58.80
39095;DHT22;24840;47.508;19.376;2023-06-04T10:01:39;23.60;65.50
39095;DHT22;24840;47.508;19.376;2023-06-04T10:04:07;23.70;58.10
39095;DHT22;24840;47.508;19.376;2023-06-04T10:06:35;23.40;65.20
39095;DHT22;24840;47.508;19.376;2023-06-04T10:09:08;23.50;64.60
39095;DHT22;24840;47.508;19.376;2023-06-04T10:11:39;23.70;66.90
39095;DHT22;24840;47.508;19.376;2023-06-04T10:14:22;23.20;64.30
39095;DHT22;24840;47.508;19.376;2023-06-04T10:16:51;23.40;68.20
39095;DHT22;24840;47.508;19.376;2023-06-04T10:19:18;23.20;71.00
39095;DHT22;24840;47.508;19.376;2023-06-04T10:21:44;23.30;70.90
39095;DHT22;24840;47.508;19.376;2023-06-04T10:24:12;23.20;63.60
39095;DHT22;24840;47.508;19.376;2023-06-04T10:26:39;23.20;69.00
39095;DHT22;24840;47.508;19.376;2023-06-04T10:29:06;23.40;69.00
39095;DHT22;24840;47.508;19.376;2023-06-04T10:31:32;23.30;63.20
39095;DHT22;24840;47.508;19.376;2023-06-04T10:33:58;23.10;69.80
39095;DHT22;24840;47.508;19.376;2023-06-04T10:36:24;23.10;63.40
39095;DHT22;24840;47.508;19.376;2023-06-04T10:38:52;23.10;63.90
39095;DHT22;24840;47.508;19.376;2023-06-04T10:41:18;23.00;70.60
39095;DHT22;24840;47.508;19.376;2023-06-04T10:43:59;23.10;60.60
39095;DHT22;24840;47.508;19.376;2023-06-04T10:46:25;23.00;68.70
39095;DHT22;24840;47.508;19.376;2023-06-04T10:48:52;23.10;66.80
39095;DHT22;24840;47.508;19.376;2023-06-04T10:51:32;22.80;60.40
39095;DHT22;24840;47.508;19.376;2023-06-04T10:53:59;22.80;61.80
39095;DHT22;24840;47.508;19.376;2023-06-04T10:56:33;23.10;67.50
39095;DHT22;24840;47.508;19.376;2023-06-04T10:59:01;22.90;63.70
39095;DHT22;24840;47.508;19.376;2023-06-04T11:01:38;23.00;65.00
39095;DHT22;24840;47.508;19.376;2023-06-04T11:04:04;23.20;71.90
39095;DHT22;24840;47.508;19.376;2023-06-04T11:06:29;23.10;68.60
39095;DHT22;24840;47.508;19.376;2023-06-04T11:09:02;23.00;64.60
39095;DHT22;24840;47.508;19.376;2023-06-04T11:11:29;23.40;71.40
39095;DHT22;24840;47.508;19.376;2023-06-04T11:13:55;23.30;65.10
39095;DHT22;24840;47.508;19.376;2023-06-04T11:16:21;23.20;64.70
39095;DHT22;24840;47.508;19.376;2023-06-04T11:18:58;23.30;66.80
39095;DHT22;24840;47.508;19.376;2023-06-04T11:21:24;23.50;66.30
39095;DHT22;24840;47.508;19.376;2023-06-04T11:23:57;23.50;65.90
39095;DHT22;24840;47.508;19.376;2023-06-04T11:26:32;23.30;61.30
39095;DHT22;24840;47.508;19.376;2023-06-04T11:28:59;23.20;62.90
39095;DHT22;24840;47.508;19.376;2023-06-04T11:31:26;23.30;61.30
39095;DHT22;24840;47.508;19.376;2023-06-04T11:33:52;23.00;60.00
39095;DHT22;24840;47.508;19.376;2023-06-04T11:36:28;23.00;65.20
39095;DHT22;24840;47.508;19.376;2023-06-04T11:38:57;23.30;65.90
39095;DHT22;24840;47.508;19.376;2023-06-04T11:41:30;23.40;69.50
39095;DHT22;24840;47.508;19.376;2023-06-04T11:43:57;23.20;63.60
39095;DHT22;24840;47.508;19.376;2023-06-04T11:46:24;23.60;71.60
39095;DHT22;24840;47.508;19.376;2023-06-04T11:48:53;24.10;66.10
39095;DHT22;24840;47.508;19.376;2023-06-04T11:51:22;24.30;63.20
39095;DHT22;24840;47.508;19.376;2023-06-04T11:53:48;24.20;61.00
39095;DHT22;24840;47.508;19.376;2023-06-04T11:56:15;24.30;64.00
39095;DHT22;24840;47.508;19.376;2023-06-04T11:58:41;24.50;65.60
39095;DHT22;24840;47.508;19.376;2023-06-04T12:01:08;25.20;64.40
39095;DHT22;24840;47.508;19.376;2023-06-04T12:03:40;25.70;64.70
39095;DHT22;24840;47.508;19.376;2023-06-04T12:06:17;25.10;63.10
39095;DHT22;24840;47.508;19.376;2023-06-04T12:08:48;24.60;58.40
39095;DHT22;24840;47.508;19.376;2023-06-04T12:11:32;24.70;64.10
39095;DHT22;24840;47.508;19.376;2023-06-04T12:14:05;24.40;65.30
39095;DHT22;24840;47.508;19.376;2023-06-04T12:16:32;24.00;62.80
39095;DHT22;24840;47.508;19.376;2023-06-04T12:19:11;23.90;62.80
39095;DHT22;24840;47.508;19.376;2023-06-04T12:21:38;23.80;58.00
39095;DHT22;24840;47.508;19.376;2023-06-04T12:24:14;23.80;64.20
39095;DHT22;24840;47.508;19.376;2023-06-04T12:26:41;23.60;60.70
39095;DHT22;24840;47.508;19.376;2023-06-04T12:29:13;23.70;64.60
39095;DHT22;24840;47.508;19.376;2023-06-04T12:31:41;23.90;66.20
39095;DHT22;24840;47.508;19.376;2023-06-04T12:34:07;23.60;65.10
39095;DHT22;24840;47.508;19.376;2023-06-04T12:36:33;23.50;61.50
39095;DHT22;24840;47.508;19.376;2023-06-04T12:39:05;23.60;64.30
39095;DHT22;24840;47.508;19.376;2023-06-04T12:41:32;23.80;68.30
39095;DHT22;24840;47.508;19.376;2023-06-04T12:44:01;23.90;68.50
39095;DHT22;24840;47.508;19.376;2023-06-04T12:46:27;23.90;69.20
39095;DHT22;24840;47.508;19.376;2023-06-04T12:48:54;23.90;68.40
39095;DHT22;24840;47.508;19.376;2023-06-04T12:51:20;23.90;71.30
39095;DHT22;24840;47.508;19.376;2023-06-04T12:53:47;23.80;74.50
39095;DHT22;24840;47.508;19.376;2023-06-04T12:56:13;23.90;72.70
39095;DHT22;24840;47.508;19.376;2023-06-04T12:58:39;23.60;74.00
39095;DHT22;24840;47.508;19.376;2023-06-04T13:01:05;23.70;75.00
39095;DHT22;24840;47.508;19.376;2023-06-04T13:03:31;23.70;76.10
39095;DHT22;24840;47.508;19.376;2023-06-04T13:05:57;23.80;79.50
39095;DHT22;24840;47.508;19.376;2023-06-04T13:08:24;23.70;79.40
39095;DHT22;24840;47.508;19.376;2023-06-04T13:10:51;23.80;71.10
39095;DHT22;24840;47.508;19.376;2023-06-04T13:13:18;23.80;68.40
39095;DHT22;24840;47.508;19.376;2023-06-04T13:15:44;23.80;73.30
39095;DHT22;24840;47.508;19.376;2023-06-04T13:18:10;23.50;72.50
39095;DHT22;24840;47.508;19.376;2023-06-04T13:20:37;23.40;71.00
39095;DHT22;24840;47.508;19.376;2023-06-04T13:23:03;23.40;71.50
39095;DHT22;24840;47.508;19.376;2023-06-04T13:25:28;23.40;72.20
39095;DHT22;24840;47.508;19.376;2023-06-04T13:27:56;23.20;79.10
39095;DHT22;24840;47.508;19.376;2023-06-04T13:30:21;23.10;79.20
39095;DHT22;24840;47.508;19.376;2023-06-04T13:32:48;22.70;77.00
39095;DHT22;24840;47.508;19.376;2023-06-04T13:35:14;22.70;85.00
39095;DHT22;24840;47.508;19.376;2023-06-04T13:37:40;22.80;80.30
39095;DHT22;24840;47.508;19.376;2023-06-04T13:40:06;22.70;85.50
39095;DHT22;24840;47.508;19.376;2023-06-04T13:42:32;22.60;88.10
39095;DHT22;24840;47.508;19.376;2023-06-04T13:44:58;22.70;90.70
39095;DHT22;24840;47.508;19.376;2023-06-04T13:47:25;22.70;90.80
39095;DHT22;24840;47.508;19.376;2023-06-04T13:49:51;22.70;90.70
39095;DHT22;24840;47.508;19.376;2023-06-04T13:52:17;22.80;89.60
39095;DHT22;24840;47.508;19.376;2023-06-04T13:54:43;22.80;88.70
39095;DHT22;24840;47.508;19.376;2023-06-04T13:57:08;22.80;88.00
39095;DHT22;24840;47.508;19.376;2023-06-04T13:59:37;22.80;90.20
39095;DHT22;24840;47.508;19.376;2023-06-04T14:02:03;22.80;90.50
39095;DHT22;24840;47.508;19.376;2023-06-04T14:04:29;22.80;86.40
39095;DHT22;24840;47.508;19.376;2023-06-04T14:06:55;22.70;81.00
39095;DHT22;24840;47.508;19.376;2023-06-04T14:09:21;22.70;82.50
39095;DHT22;24840;47.508;19.376;2023-06-04T14:11:46;22.80;82.60
39095;DHT22;24840;47.508;19.376;2023-06-04T14:14:16;22.90;83.30
39095;DHT22;24840;47.508;19.376;2023-06-04T14:16:44;22.90;79.70
39095;DHT22;24840;47.508;19.376;2023-06-04T14:19:10;23.00;81.10
39095;DHT22;24840;47.508;19.376;2023-06-04T14:21:36;23.10;86.80
39095;DHT22;24840;47.508;19.376;2023-06-04T14:24:02;23.10;84.40
39095;DHT22;24840;47.508;19.376;2023-06-04T14:26:28;23.10;82.90
39095;DHT22;24840;47.508;19.376;2023-06-04T14:28:55;23.00;78.80
39095;DHT22;24840;47.508;19.376;2023-06-04T14:31:20;23.00;80.40
39095;DHT22;24840;47.508;19.376;2023-06-04T14:33:49;22.90;77.70
39095;DHT22;24840;47.508;19.376;2023-06-04T14:36:15;22.80;82.40
39095;DHT22;24840;47.508;19.376;2023-06-04T14:38:41;22.70;82.00
39095;DHT22;24840;47.508;19.376;2023-06-04T14:41:07;22.70;87.30
39095;DHT22;24840;47.508;19.376;2023-06-04T14:43:32;22.70;85.40
39095;DHT22;24840;47.508;19.376;2023-06-04T14:45:58;22.60;83.60
39095;DHT22;24840;47.508;19.376;2023-06-04T14:48:24;22.60;84.20
39095;DHT22;24840;47.508;19.376;2023-06-04T14:50:49;22.50;88.60
39095;DHT22;24840;47.508;19.376;2023-06-04T14:53:19;22.50;87.40
39095;DHT22;24840;47.508;19.376;2023-06-04T14:55:44;22.50;87.20
39095;DHT22;24840;47.508;19.376;2023-06-04T14:58:11;22.50;84.60
39095;DHT22;24840;47.508;19.376;2023-06-04T15:00:37;22.60;84.20
39095;DHT22;24840;47.508;19.376;2023-06-04T15:03:03;22.70;88.60
39095;DHT22;24840;47.508;19.376;2023-06-04T15:05:30;22.80;91.20
39095;DHT22;24840;47.508;19.376;2023-06-04T15:07:56;22.90;87.80
39095;DHT22;24840;47.508;19.376;2023-06-04T15:10:22;22.90;85.90
39095;DHT22;24840;47.508;19.376;2023-06-04T15:12:47;22.80;91.10
39095;DHT22;24840;47.508;19.376;2023-06-04T15:15:13;22.90;90.70
39095;DHT22;24840;47.508;19.376;2023-06-04T15:17:39;22.70;90.80
39095;DHT22;24840;47.508;19.376;2023-06-04T15:20:05;22.70;92.30
39095;DHT22;24840;47.508;19.376;2023-06-04T15:22:31;22.80;93.10
39095;DHT22;24840;47.508;19.376;2023-06-04T15:24:57;22.80;93.20